Flight Track Log - Related Links

Times and Time Zones

All times are in EDT time to prevent confusion due to time zone crossing. See the ABX845 flight status page for this flight to view local times or setup timezone preferences in your user account.

Time Position Orientation Groundspeed Altitude Reporting Facility
EDT Latitude Longitude Course Direction KTS MPH feet Rate Location/Type
Fri 08:15:21 AM 36.0650 -79.9392 185° South 142 163 2,700  Level Atlanta Center
Fri 08:16:21 AM 36.0233 -79.9439 185° South 193 222 4,600 2,050 Climbing Atlanta Center
Fri 08:17:21 AM 35.9681 -79.9722 203° Southwest 200 230 6,800 2,350 Climbing Atlanta Center
Fri 08:18:21 AM 35.9128 -80.0083 208° Southwest 212 244 9,300 2,100 Climbing Atlanta Center
Fri 08:19:21 AM 35.8453 -80.0475 205° Southwest 237 273 11,000 2,450 Climbing Atlanta Center
Fri 08:20:21 AM 35.7497 -80.0572 185° South 280 322 14,200 2,483 Climbing Atlanta Center
Fri 08:22:44 AM 35.5678 -79.8308 135° Southeast 382 440 19,400 2,179 Climbing Washington Center
Fri 08:23:42 AM 35.4778 -79.7164 134° Southeast 428 493 21,500 2,390 Climbing Washington Center
Fri 08:24:42 AM 35.3900 -79.5997 133° Southeast 457 526 24,100 2,400 Climbing Washington Center
Fri 08:25:42 AM 35.3019 -79.4858 133° Southeast 462 532 26,300 1,426 Climbing Washington Center
Fri 08:26:44 AM 35.2178 -79.3725 132° Southeast 462 532 27,000 850 Climbing Washington Center
Fri 08:27:42 AM 35.1375 -79.2747 135° Southeast 456 525 28,000 559 Climbing Washington Center
Fri 08:28:42 AM 35.0553 -79.1644 132° Southeast 456 525 28,100 694 Climbing Washington Center
Fri 08:29:43 AM 34.9667 -79.0542 134° Southeast 456 525 29,400 942 Climbing Washington Center
Fri 08:30:43 AM 34.8783 -78.9364 132° Southeast 456 525 30,000 645 Climbing Washington Center
Fri 08:31:44 AM 34.7856 -78.8214 134° Southeast 461 531 30,700 1,140 Climbing Washington Center
Fri 08:32:44 AM 34.6969 -78.7017 132° Southeast 467 537 32,300 1,729 Climbing Washington Center
Fri 08:33:42 AM 34.5936 -78.5742 135° Southeast 480 552 34,100 1,765 Climbing Washington Center
Fri 08:34:43 AM 34.5006 -78.4622 135° Southeast 480 552 35,800 1,537 Climbing Washington Center
Fri 08:35:43 AM 34.4092 -78.3483 134° Southeast 473 544 37,200 1,041 Climbing Washington Center
Fri 08:36:44 AM 34.3181 -78.2297 133° Southeast 473 544 37,900 793 Climbing Washington Center
Fri 08:37:44 AM 34.2247 -78.1111 134° Southeast 479 551 38,800 712 Climbing Washington Center
Fri 08:39:41 AM 34.0111 -77.9550 149° Southeast 485 558 40,000 407 Climbing Jacksonville Center
Fri 08:40:41 AM 33.8856 -77.9469 177° South 448 516 40,000  Level Jacksonville Center
Fri 08:41:41 AM 33.7600 -77.9367 176° South 448 516 40,000 -50 Level Jacksonville Center
Fri 08:42:41 AM 33.6328 -77.9361 180° South 454 522 39,900 -50 Descending Jacksonville Center
Fri 08:43:41 AM 33.5114 -77.9281 177° South 454 522 39,900 50 Level Jacksonville Center
Fri 08:44:41 AM 33.3836 -77.9203 177° South 454 522 40,000  Climbing Jacksonville Center
Fri 08:45:41 AM 33.2603 -77.9122 177° South 449 517 39,900 -50 Descending Jacksonville Center
Fri 08:46:41 AM 33.1369 -77.9044 177° South 449 517 39,900  Level Jacksonville Center
Fri 08:47:41 AM 33.0114 -77.8964 177° South 449 517 39,900 50 Level Jacksonville Center
Fri 08:48:41 AM 32.8858 -77.8911 178° South 449 517 40,000  Climbing Jacksonville Center
Fri 08:49:41 AM 32.7606 -77.8856 178° South 449 517 39,900 -50 Descending Jacksonville Center
Fri 08:50:41 AM 32.6347 -77.8753 176° South 454 522 39,900 50 Level Jacksonville Center
Fri 08:51:41 AM 32.5092 -77.8650 176° South 454 522 40,000  Climbing Jacksonville Center
Fri 08:52:41 AM 32.3817 -77.8597 178° South 459 528 39,900 -50 Descending Jacksonville Center
Fri 08:53:41 AM 32.2539 -77.8472 175° South 464 534 39,900 50 Level Jacksonville Center
Fri 08:54:41 AM 32.1264 -77.8394 177° South 464 534 40,000  Climbing Jacksonville Center
Fri 08:55:41 AM 31.9986 -77.8319 177° South 464 534 39,900 -50 Descending Jacksonville Center
Fri 08:56:41 AM 31.8689 -77.8267 178° South 464 534 39,900  Level Jacksonville Center
Fri 08:57:41 AM 31.7414 -77.8192 177° South 464 534 39,900  Level Jacksonville Center
Fri 08:58:41 AM 31.6114 -77.8067 175° South 464 534 39,900  Level Jacksonville Center
Fri 08:59:41 AM 31.4839 -77.8014 178° South 464 534 39,900  Level Jacksonville Center
Fri 09:00:41 AM 31.3544 -77.7964 178° South 464 534 39,900  Level Jacksonville Center
Fri 09:01:41 AM 31.2247 -77.7914 178° South 464 534 39,900  Level Jacksonville Center
Fri 09:02:41 AM 31.0953 -77.7886 179° South 464 534 39,900 50 Level Jacksonville Center
Fri 09:03:41 AM 30.9636 -77.7836 178° South 464 534 40,000  Climbing Jacksonville Center
Fri 09:04:41 AM 30.8358 -77.7736 176° South 464 534 39,900 -34 Descending Jacksonville Center
Fri 09:06:38 AM 30.5694 -77.7614 178° South 443 510 39,900 34 Level Miami Center
Fri 09:07:38 AM 30.4422 -77.7531 177° South 466 536 40,000  Climbing Miami Center
Fri 09:08:38 AM 30.3047 -77.7353 174° South 479 551 39,900  Descending Miami Center
Fri 09:09:38 AM 30.1883 -77.6886 161° South 464 534 40,000 50 Climbing Miami Center
Fri 09:10:38 AM 30.0656 -77.6372 160° South 469 540 40,000 -50 Level Miami Center
Fri 09:11:38 AM 29.9303 -77.5764 159° South 490 564 39,900  Descending Miami Center
Fri 09:12:38 AM 29.8075 -77.5278 161° South 490 564 40,000  Climbing Miami Center
Fri 09:13:38 AM 29.6764 -77.4697 159° South 498 573 39,900  Descending Miami Center
Fri 09:14:38 AM 29.5517 -77.4189 160° South 493 567 40,000  Climbing Miami Center
Fri 09:15:38 AM 29.4183 -77.3611 159° South 491 565 39,900 -50 Descending Miami Center
Fri 09:16:38 AM 29.2933 -77.3083 160° South 482 555 39,900  Level Miami Center
Fri 09:17:38 AM 29.1642 -77.2553 160° South 488 562 39,900  Level Miami Center
Fri 09:18:38 AM 29.0411 -77.2050 160° South 499 574 39,900 50 Level Miami Center
Fri 09:19:38 AM 28.9244 -77.1572 160° South 504 580 40,000  Climbing Miami Center
Fri 09:20:38 AM 28.7931 -77.1025 160° South 486 559 39,900 -50 Descending Miami Center
Fri 09:21:38 AM 28.6700 -77.0503 160° South 481 554 39,900  Level Miami Center
Fri 09:22:38 AM 28.5467 -76.9981 160° South 486 559 39,900  Level Miami Center
Fri 09:23:38 AM 28.4153 -76.9436 160° South 486 559 39,900  Level Miami Center
Fri 09:24:38 AM 28.2858 -76.8917 161° South 484 557 39,900 50 Level Miami Center
Fri 09:25:38 AM 28.1564 -76.8444 162° South 489 563 40,000 50 Climbing Miami Center
Fri 09:26:38 AM 28.0144 -76.7833 159° South 504 580 40,000  Level Miami Center
Fri 09:27:38 AM 27.8994 -76.7339 159° South 495 570 40,000  Level Miami Center
Fri 09:28:38 AM 27.7742 -76.6872 162° South 495 570 40,000  Level Miami Center
Fri 09:29:38 AM 27.6447 -76.6381 161° South 489 563 40,000 150 Level Miami Center
Fri 09:30:38 AM 27.5214 -76.5706 154° Southeast 483 556 40,300 450 Climbing Miami Center
Fri 09:31:38 AM 27.4272 -76.4678 136° Southeast 468 539 40,900 350 Climbing Miami Center
Fri 09:32:38 AM 27.3347 -76.3536 132° Southeast 475 547 41,000 50 Climbing Miami Center
Fri 09:33:38 AM 27.2406 -76.2442 134° Southeast 475 547 41,000  Level Miami Center
Fri 09:34:38 AM 27.1542 -76.1394 133° Southeast 475 547 41,000  Level Miami Center
Fri 09:35:38 AM 27.0661 -76.0350 133° Southeast 466 536 41,000  Level Miami Center
Fri 09:36:38 AM 26.9714 -75.9239 134° Southeast 482 555 41,000  Level Miami Center
Fri 09:37:38 AM 26.8828 -75.8197 134° Southeast 474 545 41,000  Level Miami Center
Fri 09:38:38 AM 26.7900 -75.7111 134° Southeast 479 551 41,000  Level Miami Center
Fri 09:39:38 AM 26.7014 -75.6050 133° Southeast 472 543 41,000  Level Miami Center
Fri 09:40:38 AM 26.6106 -75.4967 133° Southeast 472 543 41,000  Level Miami Center
Fri 09:41:38 AM 26.5114 -75.3819 134° Southeast 476 548 41,000  Level Miami Center
Fri 09:42:38 AM 26.4247 -75.2786 133° Southeast 470 541 41,000  Level Miami Center
Fri 09:43:38 AM 26.3294 -75.1708 135° Southeast 476 548 41,000  Level Miami Center
Fri 09:44:38 AM 26.2444 -75.0678 133° Southeast 468 539 41,000  Level Miami Center
Fri 09:45:38 AM 26.1578 -74.9672 134° Southeast 465 535 41,000  Level Miami Center
Fri 09:46:38 AM 26.0664 -74.8622 134° Southeast 468 539 41,000  Level Miami Center
Fri 09:47:38 AM 25.9750 -74.7575 134° Southeast 463 533 41,000  Level Miami Center
Fri 09:48:38 AM 25.8794 -74.6553 136° Southeast 472 543 41,000  Level Miami Center
Fri 09:49:38 AM 25.7986 -74.5553 132° Southeast 464 534 41,000  Level Miami Center
Fri 09:50:38 AM 25.7031 -74.4533 136° Southeast 459 528 41,000  Level Miami Center
Fri 09:51:38 AM 25.6133 -74.3469 133° Southeast 459 528 41,000  Level Miami Center
Fri 09:52:38 AM 25.5303 -74.2542 135° Southeast 452 520 41,000  Level Miami Center
Fri 09:53:38 AM 25.4322 -74.1411 134° Southeast 461 531 41,000  Level Miami Center
Fri 09:54:38 AM 25.3597 -74.0625 136° Southeast 466 536 41,000  Level Miami Center
Fri 09:55:38 AM 25.2569 -73.9406 133° Southeast 474 545 41,000  Level Miami Center
Fri 09:56:38 AM 25.1717 -73.8486 136° Southeast 468 539 41,000  Level Miami Center
Fri 09:57:38 AM 25.0775 -73.7408 134° Southeast 468 539 41,000  Level Miami Center
Fri 09:58:38 AM 24.9875 -73.6422 135° Southeast 468 539 41,000  Level Miami Center
Fri 09:59:38 AM 24.8933 -73.5394 135° Southeast 475 547 41,000  Level Miami Center
Fri 10:00:38 AM 24.8075 -73.4386 133° Southeast 469 540 41,000  Level Miami Center
Fri 10:01:38 AM 24.7236 -73.3428 134° Southeast 459 528 41,000  Level Miami Center
Fri 10:02:38 AM 24.6314 -73.2403 135° Southeast 459 528 41,000  Level Miami Center
Fri 10:03:38 AM 24.5433 -73.1447 135° Southeast 449 517 41,000  Level Miami Center
Fri 10:04:38 AM 24.4447 -73.0403 136° Southeast 457 526 41,000  Level Miami Center
Fri 10:05:38 AM 24.3650 -72.9494 134° Southeast 448 516 41,000  Level Miami Center
Fri 10:06:38 AM 24.2767 -72.8519 135° Southeast 448 516 41,000  Level Miami Center
Fri 10:07:38 AM 24.1800 -72.7503 136° Southeast 453 521 41,000  Level Miami Center
Fri 10:08:38 AM 24.1022 -72.6572 132° Southeast 446 513 41,000  Level Miami Center
Fri 10:09:38 AM 24.0117 -72.5603 136° Southeast 457 526 41,000  Level Miami Center
Fri 10:10:38 AM 23.9147 -72.4544 135° Southeast 448 516 41,000  Level Miami Center
Fri 10:11:38 AM 23.8281 -72.3553 134° Southeast 448 516 41,000  Level Miami Center
Fri 10:12:38 AM 23.7397 -72.2633 136° Southeast 448 516 41,000  Level Miami Center
Fri 10:13:38 AM 23.6489 -72.1667 136° Southeast 448 516 41,000  Level Miami Center
Fri 10:14:38 AM 23.5581 -72.0661 135° Southeast 453 521 41,000  Level Miami Center
Fri 10:15:38 AM 23.4672 -71.9722 137° Southeast 453 521 41,000  Level Miami Center
Fri 10:16:38 AM 23.3764 -71.8717 135° Southeast 453 521 41,000  Level Miami Center
Fri 10:17:38 AM 23.2856 -71.7756 136° Southeast 453 521 41,000  Level Miami Center
Fri 10:18:38 AM 23.1944 -71.6800 136° Southeast 453 521 41,000  Level Miami Center
Fri 10:19:38 AM 23.1011 -71.5775 135° Southeast 458 527 41,000  Level Miami Center
Fri 10:20:38 AM 23.0100 -71.4800 135° Southeast 458 527 41,000  Level Miami Center
Fri 10:21:38 AM 22.9189 -71.3822 135° Southeast 458 527 41,000  Level Miami Center
Fri 10:22:38 AM 22.8256 -71.2850 136° Southeast 458 527 41,000  Level Miami Center
Fri 10:23:38 AM 22.7517 -71.2072 136° Southeast 463 533 41,000  Level Miami Center
Fri 10:24:38 AM 22.6497 -71.1014 136° Southeast 458 527 41,000  Level Miami Center
Fri 10:25:38 AM 22.5561 -71.0022 136° Southeast 458 527 41,000  Level Miami Center
Fri 10:26:38 AM 22.4644 -70.9031 135° Southeast 458 527 41,000  Level Miami Center
Fri 10:27:38 AM 22.3733 -70.8086 136° Southeast 465 535 41,000  Level Miami Center
Fri 10:28:38 AM 22.2794 -70.7075 135° Southeast 460 529 41,000  Level Miami Center
Fri 10:29:38 AM 22.1858 -70.6111 136° Southeast 460 529 41,000  Level Miami Center
Fri 10:30:39 AM 22.0900 -70.5172 138° Southeast 465 535 41,000  Level Miami Center
Fri 10:31:38 AM 21.9944 -70.4233 138° Southeast 465 535 41,000  Level Miami Center
Fri 10:32:38 AM 21.8983 -70.3231 136° Southeast 465 535 41,000  Level Miami Center
Fri 10:33:38 AM 21.8069 -70.2314 137° Southeast 459 528 41,000  Level Miami Center
Fri 10:34:38 AM 21.7131 -70.1336 136° Southeast 459 528 41,000  Level Miami Center
Fri 10:35:38 AM 21.6192 -70.0378 136° Southeast 459 528 41,000  Level Miami Center
Fri 10:36:39 AM 21.5314 -69.9444 135° Southeast 454 522 41,000  Level Miami Center
Fri 10:37:38 AM 21.4375 -69.8489 137° Southeast 454 522 41,000  Level Miami Center
Fri 10:38:38 AM 21.3456 -69.7536 136° Southeast 454 522 41,000  Level Miami Center
Fri 10:39:39 AM 21.2514 -69.6564 136° Southeast 454 522 41,000  Level Miami Center
Fri 10:40:38 AM 21.1617 -69.5633 136° Southeast 454 522 41,000  Level Miami Center
Fri 10:41:38 AM 21.0697 -69.4686 136° Southeast 454 522 41,000  Level Miami Center
Fri 10:42:39 AM 20.9775 -69.3717 136° Southeast 454 522 41,000  Level Miami Center
Fri 10:43:38 AM 20.8831 -69.2747 136° Southeast 459 528 41,000  Level Miami Center
Fri 10:44:38 AM 20.7889 -69.1781 136° Southeast 464 534 41,000  Level Miami Center
Fri 10:45:38 AM 20.6944 -69.0817 136° Southeast 464 534 41,000  Level Miami Center
Fri 10:46:38 AM 20.6003 -68.9897 138° Southeast 464 534 41,000  Level Miami Center
Fri 10:47:38 AM 20.4989 -68.8828 135° Southeast 464 534 41,000  Level Miami Center
Fri 10:48:38 AM 20.4067 -68.7889 136° Southeast 464 534 41,000  Level Miami Center
Fri 10:49:38 AM 20.3142 -68.6906 135° Southeast 464 534 41,000  Level Miami Center
Fri 10:50:38 AM 20.2217 -68.5944 136° Southeast 464 534 41,000  Level Miami Center
Fri 10:51:39 AM 20.1272 -68.5011 137° Southeast 464 534 41,000  Level Miami Center
Fri 10:52:38 AM 20.0464 -68.3914 128° Southeast 470 541 41,000  Level Miami Center
Fri 10:53:38 AM 19.9675 -68.2775 126° Southeast 476 548 41,000  Level Miami Center
Fri 10:54:39 AM 19.8864 -68.1658 128° Southeast 476 548 41,000  Level Miami Center
Fri 10:55:38 AM 19.8167 -68.0667 127° Southeast 470 541 41,000  Level San Juan Center
Fri 10:56:39 AM 19.7333 -67.9667 132° Southeast 480 552 41,000  Level San Juan Center
Fri 10:57:39 AM 19.6500 -67.8500 127° Southeast 480 552 41,000  Level San Juan Center
Fri 10:58:39 AM 19.5667 -67.7333 127° Southeast 470 541 41,000  Level San Juan Center
Fri 10:59:39 AM 19.5000 -67.6333 125° Southeast 470 541 41,000 -800 Level San Juan Center
Fri 11:00:39 AM 19.4167 -67.5167 127° Southeast 470 541 39,400 -2,350 Descending San Juan Center
Fri 11:01:39 AM 19.3333 -67.4000 127° Southeast 470 541 36,300 -3,550 Descending San Juan Center
Fri 11:02:39 AM 19.2333 -67.2667 128° Southeast 480 552 32,300 -4,400 Descending San Juan Center
Fri 11:03:39 AM 19.1500 -67.1500 127° Southeast 500 575 27,500 -4,750 Descending San Juan Center
Fri 11:04:39 AM 19.0667 -67.0333 127° Southeast 500 575 22,800 -3,500 Descending San Juan Center
Fri 11:05:39 AM 18.9833 -66.9333 131° Southeast 460 529 20,500 -3,074 Descending San Juan Center
Fri 11:06:40 AM 18.9167 -66.8333 125° Southeast 390 449 16,600 -3,719 Descending San Juan Center
Fri 11:07:40 AM 18.8667 -66.7500 122° Southeast 360 414 13,000 -2,750 Descending San Juan Center
Fri 11:08:40 AM 18.8000 -66.6667 130° Southeast 340 391 11,100 -1,250 Descending San Juan Center
Fri 11:09:40 AM 18.7500 -66.6000 128° Southeast 280 322 10,500 -850 Descending San Juan Center
Fri 11:10:40 AM 18.7167 -66.5500 125° Southeast 260 299 9,400 -850 Descending San Juan Center
Fri 11:11:40 AM 18.6667 -66.4833 128° Southeast 260 299 8,800 -700 Descending San Juan Center
Fri 11:12:40 AM 18.6167 -66.4333 137° Southeast 250 288 8,000 -1,140 Descending San Juan Center
Fri 11:13:41 AM 18.5833 -66.3833 125° Southeast 230 265 6,500 -1,240 Descending San Juan Center
Fri 11:14:41 AM 18.5167 -66.3500 155° Southeast 210 242 5,500 -1,050 Descending San Juan Center
Fri 11:15:41 AM 18.4667 -66.3333 162° South 200 230 4,400 -1,200 Descending San Juan Center
Fri 11:16:41 AM 18.4333 -66.3000 137° Southeast 190 219 3,100 -700 Descending San Juan Center
Fri 11:17:41 AM 18.4000 -66.2667 137° Southeast 200 230 3,000 -150 Descending San Juan Center
Fri 11:18:41 AM 18.4333 -66.2167 55° Northeast 190 219 2,800 -500 Descending San Juan Center
Fri 11:19:41 AM 18.4333 -66.1667 90° East 160 184 2,000 -400 Descending San Juan Center
Fri 11:20:41 AM 18.4333 -66.1333 90° East 140 161 2,000 -250 Level San Juan Center
Fri 11:21:41 AM 18.4333 -66.0833 90° East 120 138 1,500 -600 Descending San Juan Center
Fri 11:22:41 AM 18.4333 -66.0500 90° East 120 138 800 -645 Descending San Juan Center
Fri 11:23:42 AM 18.4167 -66.0167 118° Southeast 110 127 200 -590 Descending San Juan Center

Login

Don't have an account? Register now (free) for customized features, flight alerts, and more!